createdAt,value
2023-12-14T00:01:22.214Z,99796.88
2023-12-14T00:03:50.139Z,99807.69
2023-12-14T00:06:17.824Z,99806.44
2023-12-14T00:08:45.654Z,99804.34
2023-12-14T00:11:13.448Z,99800.38
2023-12-14T00:13:41.854Z,99806.88
2023-12-14T00:16:10.066Z,99812.91
2023-12-14T00:18:38.798Z,99814.84
2023-12-14T00:21:06.979Z,99815.13
2023-12-14T00:23:37.720Z,99821.38
2023-12-14T00:26:05.547Z,99820.56
2023-12-14T00:28:34.625Z,99821.38
2023-12-14T00:31:02.881Z,99821.38
2023-12-14T00:33:31.111Z,99825.78
2023-12-14T00:35:59.052Z,99832.50
2023-12-14T00:38:26.956Z,99833.91
2023-12-14T00:40:54.780Z,99844.91
2023-12-14T00:43:22.818Z,99860.56
2023-12-14T00:45:50.598Z,99852.75
2023-12-14T00:48:18.364Z,99850.22
2023-12-14T00:50:46.279Z,99851.00
2023-12-14T00:53:14.109Z,99853.22
2023-12-14T00:55:41.969Z,99848.31
2023-12-14T00:58:09.965Z,99846.84
2023-12-14T01:00:37.608Z,99851.81
2023-12-14T01:03:05.813Z,99861.19
2023-12-14T01:05:33.787Z,99861.88
2023-12-14T01:08:01.614Z,99856.59
2023-12-14T01:10:29.231Z,99864.91
2023-12-14T01:12:57.008Z,99861.38
2023-12-14T01:15:24.698Z,99870.31
2023-12-14T01:17:52.617Z,99871.13
2023-12-14T01:20:20.471Z,99863.63
2023-12-14T01:22:48.208Z,99876.66
2023-12-14T01:25:16.204Z,99877.63
2023-12-14T01:27:44.144Z,99879.53
2023-12-14T01:30:12.466Z,99879.53
2023-12-14T01:32:40.565Z,99878.75
2023-12-14T01:35:09.068Z,99882.75
2023-12-14T01:37:36.889Z,99885.75
2023-12-14T01:40:05.011Z,99896.75
2023-12-14T01:42:32.782Z,99902.00
2023-12-14T01:45:00.654Z,99903.75
2023-12-14T01:47:28.392Z,99894.03
2023-12-14T01:49:56.128Z,99904.88
2023-12-14T01:52:23.893Z,99908.28
2023-12-14T01:54:51.633Z,99905.22
2023-12-14T01:57:19.466Z,99908.09
2023-12-14T01:59:47.515Z,99915.44
2023-12-14T02:02:15.303Z,99917.34
2023-12-14T02:04:43.164Z,99915.28
2023-12-14T02:07:10.848Z,99914.47
2023-12-14T02:09:38.662Z,99909.75
2023-12-14T02:12:06.839Z,99907.50
2023-12-14T02:14:34.587Z,99898.84
2023-12-14T02:17:02.402Z,99896.31
2023-12-14T02:19:30.188Z,99901.28
2023-12-14T02:21:58.396Z,99895.69
2023-12-14T02:24:26.290Z,99896.31
2023-12-14T02:27:02.598Z,99899.31
2023-12-14T02:29:32.248Z,99898.84
2023-12-14T02:32:00.285Z,99895.16
2023-12-14T02:34:28.084Z,99895.63
2023-12-14T02:36:58.563Z,99893.72
2023-12-14T02:39:26.255Z,99897.25
2023-12-14T02:41:53.984Z,99894.03
2023-12-14T02:44:21.820Z,99899.19
2023-12-14T02:46:49.613Z,99905.06
2023-12-14T02:49:17.342Z,99914.47
2023-12-14T02:51:44.907Z,99911.44
2023-12-14T02:54:12.617Z,99902.06
2023-12-14T02:56:40.324Z,99909.06
2023-12-14T02:59:08.390Z,99910.13
2023-12-14T03:01:36.058Z,99912.44
2023-12-14T03:04:03.833Z,99905.91
2023-12-14T03:06:31.532Z,99910.34
2023-12-14T03:08:59.200Z,99911.78
2023-12-14T03:11:27.042Z,99908.72
2023-12-14T03:13:54.825Z,99906.03
2023-12-14T03:16:23.073Z,99911.94
2023-12-14T03:18:54.317Z,99920.84
2023-12-14T03:21:22.132Z,99918.31
2023-12-14T03:23:50.009Z,99918.47
2023-12-14T03:26:17.700Z,99929.16
2023-12-14T03:28:45.486Z,99932.81
2023-12-14T03:31:16.453Z,99932.66
2023-12-14T03:33:44.551Z,99935.25
2023-12-14T03:36:12.741Z,99937.44
2023-12-14T03:38:40.508Z,99936.34
2023-12-14T03:41:08.448Z,99948.44
2023-12-14T03:43:36.222Z,99951.63
2023-12-14T03:46:04.375Z,99960.88
2023-12-14T03:48:32.112Z,99973.28
2023-12-14T03:51:04.580Z,99965.00
2023-12-14T03:53:32.480Z,99959.56
2023-12-14T03:56:00.280Z,99967.00
2023-12-14T03:58:28.211Z,99971.66
2023-12-14T04:00:55.943Z,99973.81
2023-12-14T04:03:23.603Z,99974.03
2023-12-14T04:05:51.369Z,99977.84
2023-12-14T04:08:19.015Z,99979.88
2023-12-14T04:10:46.793Z,99976.81
2023-12-14T04:13:14.566Z,99989.63
2023-12-14T04:15:42.868Z,99991.13
2023-12-14T04:18:10.641Z,99990.25
2023-12-14T04:20:38.141Z,99991.41
2023-12-14T04:23:05.953Z,99997.56
2023-12-14T04:25:33.720Z,99994.69
2023-12-14T04:28:01.511Z,99997.88
2023-12-14T04:30:29.221Z,99995.03
2023-12-14T04:32:57.148Z,99996.22
2023-12-14T04:35:24.837Z,99999.16
2023-12-14T04:37:52.705Z,100001.81
2023-12-14T04:40:20.729Z,99995.91
2023-12-14T04:42:48.377Z,100007.84
2023-12-14T04:45:17.776Z,100003.28
2023-12-14T04:47:45.591Z,100010.69
2023-12-14T04:50:13.784Z,100019.91
2023-12-14T04:52:43.966Z,100011.59
2023-12-14T04:55:11.745Z,100022.59
2023-12-14T04:57:39.527Z,100029.66
2023-12-14T05:00:08.979Z,100038.69
2023-12-14T05:02:36.792Z,100035.19
2023-12-14T05:05:05.052Z,100042.19
2023-12-14T05:07:32.851Z,100040.47
2023-12-14T05:10:00.550Z,100041.88
2023-12-14T05:12:30.173Z,100040.16
2023-12-14T05:14:58.117Z,100041.06
2023-12-14T05:17:25.749Z,100046.28
2023-12-14T05:19:53.672Z,100051.81
2023-12-14T05:22:21.444Z,100052.28
2023-12-14T05:24:49.260Z,100058.38
2023-12-14T05:27:17.006Z,100058.75
2023-12-14T05:29:44.683Z,100060.28
2023-12-14T05:32:12.619Z,100074.66
2023-12-14T05:34:40.356Z,100075.88
2023-12-14T05:37:08.394Z,100071.69
2023-12-14T05:39:36.093Z,100070.78
2023-12-14T05:42:03.913Z,100084.59
2023-12-14T05:44:31.656Z,100084.88
2023-12-14T05:46:59.405Z,100086.25
2023-12-14T05:49:27.116Z,100098.44
2023-12-14T05:51:54.850Z,100096.16
2023-12-14T05:54:22.788Z,100098.03
2023-12-14T05:56:50.424Z,100096.38
2023-12-14T05:59:18.741Z,100100.63
2023-12-14T06:01:46.551Z,100109.81
2023-12-14T06:04:14.329Z,100114.19
2023-12-14T06:06:42.381Z,100128.31
2023-12-14T06:09:10.177Z,100132.91
2023-12-14T06:11:38.051Z,100143.00
2023-12-14T06:14:05.862Z,100139.50
2023-12-14T06:16:33.813Z,100137.09
2023-12-14T06:19:01.707Z,100138.50
2023-12-14T06:21:30.020Z,100141.66
2023-12-14T06:23:58.726Z,100149.06
2023-12-14T06:26:27.247Z,100157.44
2023-12-14T06:28:56.231Z,100160.72
2023-12-14T06:31:24.127Z,100158.81
2023-12-14T06:33:51.834Z,100171.06
2023-12-14T06:36:20.061Z,100175.78
2023-12-14T06:38:50.506Z,100183.09
2023-12-14T06:41:25.086Z,100177.34
2023-12-14T06:43:53.769Z,100185.94
2023-12-14T06:46:22.357Z,100185.44
2023-12-14T06:48:50.598Z,100189.63
2023-12-14T06:51:18.684Z,100195.94
2023-12-14T06:53:47.280Z,100202.44
2023-12-14T06:56:15.588Z,100209.94
2023-12-14T06:58:45.199Z,100211.16
2023-12-14T07:01:16.725Z,100214.16
2023-12-14T07:03:45.799Z,100221.13
2023-12-14T07:06:15.259Z,100221.66
2023-12-14T07:08:43.242Z,100218.44
2023-12-14T07:11:11.626Z,100218.97
2023-12-14T07:13:39.855Z,100231.16
2023-12-14T07:16:09.580Z,100230.25
2023-12-14T07:18:41.898Z,100233.34
2023-12-14T07:21:10.212Z,100248.06
2023-12-14T07:23:38.498Z,100237.97
2023-12-14T07:26:08.134Z,100241.34
2023-12-14T07:28:36.378Z,100256.44
2023-12-14T07:31:04.284Z,100268.66
2023-12-14T07:33:32.274Z,100270.56
2023-12-14T07:36:00.054Z,100272.88
2023-12-14T07:38:27.740Z,100278.66
2023-12-14T07:40:55.501Z,100276.56
2023-12-14T07:43:24.073Z,100281.03
2023-12-14T07:45:51.911Z,100278.28
2023-12-14T07:48:19.805Z,100285.56
2023-12-14T07:50:49.777Z,100294.16
2023-12-14T07:53:17.658Z,100301.06
2023-12-14T07:55:45.341Z,100317.16
2023-12-14T07:58:14.278Z,100316.16
2023-12-14T08:00:42.033Z,100315.25
2023-12-14T08:03:09.741Z,100316.19
2023-12-14T08:05:37.581Z,100315.19
2023-12-14T08:08:05.326Z,100319.59
2023-12-14T08:10:33.380Z,100309.00
2023-12-14T08:13:01.150Z,100315.00
2023-12-14T08:15:28.768Z,100318.22
2023-12-14T08:17:56.638Z,100324.41
2023-12-14T08:20:24.259Z,100332.00
2023-12-14T08:22:52.108Z,100331.41
2023-12-14T08:25:19.962Z,100339.53
2023-12-14T08:27:47.793Z,100335.94
2023-12-14T08:30:15.788Z,100348.22
2023-12-14T08:32:44.416Z,100349.34
2023-12-14T08:35:12.490Z,100355.84
2023-12-14T08:37:40.393Z,100360.72
2023-12-14T08:40:08.768Z,100365.66
2023-12-14T08:42:37.539Z,100363.44
2023-12-14T08:45:08.007Z,100373.03
2023-12-14T08:47:36.601Z,100371.91
2023-12-14T08:50:05.484Z,100380.00
2023-12-14T08:52:33.562Z,100388.03
2023-12-14T08:55:03.161Z,100382.84
2023-12-14T08:57:30.786Z,100396.56
2023-12-14T08:59:58.469Z,100399.44
2023-12-14T09:02:26.301Z,100406.66
2023-12-14T09:04:54.083Z,100403.94
2023-12-14T09:07:21.775Z,100409.88
2023-12-14T09:09:49.512Z,100404.47
2023-12-14T09:12:17.362Z,100410.56
2023-12-14T09:14:47.691Z,100408.00
2023-12-14T09:17:15.637Z,100417.44
2023-12-14T09:19:43.511Z,100427.44
2023-12-14T09:22:11.255Z,100427.50
2023-12-14T09:24:38.997Z,100435.06
2023-12-14T09:27:06.569Z,100436.25
2023-12-14T09:29:34.447Z,100439.44
2023-12-14T09:32:02.414Z,100441.34
2023-12-14T09:34:30.206Z,100443.97
2023-12-14T09:36:58.147Z,100446.69
2023-12-14T09:39:25.881Z,100447.00
2023-12-14T09:41:53.698Z,100452.25
2023-12-14T09:44:21.777Z,100439.16
2023-12-14T09:46:51.670Z,100454.97
2023-12-14T09:49:19.772Z,100454.19
2023-12-14T09:51:48.171Z,100452.28
2023-12-14T09:54:15.956Z,100458.25
2023-12-14T09:56:48.222Z,100458.19
2023-12-14T09:59:16.808Z,100459.16
2023-12-14T10:01:46.735Z,100462.13
2023-12-14T10:04:19.655Z,100459.03
2023-12-14T10:06:49.176Z,100471.75
2023-12-14T10:09:24.615Z,100464.88
2023-12-14T10:12:06.648Z,100463.09
2023-12-14T10:14:34.852Z,100456.16
2023-12-14T10:17:23.017Z,100466.56
2023-12-14T10:19:51.197Z,100465.94
2023-12-14T10:22:19.641Z,100465.97
2023-12-14T10:24:51.048Z,100471.66
2023-12-14T10:27:19.039Z,100486.31
2023-12-14T10:29:47.805Z,100484.56
2023-12-14T10:32:15.930Z,100473.88
2023-12-14T10:34:44.076Z,100475.31
2023-12-14T10:37:14.567Z,100469.97
2023-12-14T10:39:44.160Z,100479.91
2023-12-14T10:42:19.015Z,100480.00
2023-12-14T10:47:27.793Z,100482.00
2023-12-14T10:49:57.991Z,100481.44
2023-12-14T10:52:26.757Z,100486.97
2023-12-14T10:55:01.684Z,100487.31
2023-12-14T10:57:30.462Z,100495.44
2023-12-14T11:00:03.324Z,100495.94
2023-12-14T11:02:40.458Z,100499.63
2023-12-14T11:05:10.882Z,100500.66
2023-12-14T11:07:52.951Z,100507.91
2023-12-14T11:10:42.250Z,100508.72
2023-12-14T11:13:15.307Z,100512.97
2023-12-14T11:15:52.401Z,100520.50
2023-12-14T11:18:22.047Z,100520.69
2023-12-14T11:20:51.867Z,100525.66
2023-12-14T11:23:26.126Z,100524.38
2023-12-14T11:25:59.192Z,100524.28
2023-12-14T11:28:29.733Z,100528.41
2023-12-14T11:30:58.498Z,100527.31
2023-12-14T11:33:28.652Z,100529.25
2023-12-14T11:35:59.392Z,100526.84
2023-12-14T11:38:27.393Z,100528.25
2023-12-14T11:40:55.299Z,100519.84
2023-12-14T11:43:25.077Z,100535.41
2023-12-14T11:45:54.592Z,100523.75
2023-12-14T11:48:23.117Z,100524.31
2023-12-14T11:50:50.942Z,100523.88
2023-12-14T11:53:19.718Z,100521.72
2023-12-14T11:55:47.595Z,100522.50
2023-12-14T11:58:17.246Z,100523.28
2023-12-14T12:00:47.647Z,100518.88
2023-12-14T12:03:17.942Z,100524.28
2023-12-14T12:05:51.120Z,100513.34
2023-12-14T12:08:22.769Z,100514.03
2023-12-14T12:10:51.734Z,100524.41
2023-12-14T12:13:21.457Z,100525.53
2023-12-14T12:15:49.609Z,100531.91
2023-12-14T12:18:18.993Z,100536.78
2023-12-14T12:20:47.718Z,100537.94
2023-12-14T12:23:15.398Z,100538.38
2023-12-14T12:25:43.388Z,100548.47
2023-12-14T12:28:11.226Z,100540.44
2023-12-14T12:30:40.546Z,100551.53
2023-12-14T12:33:10.159Z,100544.31
2023-12-14T12:35:37.854Z,100540.41
2023-12-14T12:38:06.389Z,100544.66
2023-12-14T12:40:34.822Z,100533.34
2023-12-14T12:43:03.438Z,100534.22
2023-12-14T12:45:33.666Z,100535.34
2023-12-14T12:48:01.813Z,100538.25
2023-12-14T12:50:29.731Z,100548.84
2023-12-14T12:52:57.611Z,100547.72
2023-12-14T12:55:25.311Z,100539.38
2023-12-14T12:57:53.136Z,100537.59
2023-12-14T13:00:21.287Z,100533.75
2023-12-14T13:02:49.409Z,100542.03
2023-12-14T13:05:18.605Z,100540.03
2023-12-14T13:07:48.245Z,100538.06
2023-12-14T13:10:25.918Z,100533.66
2023-12-14T13:12:59.249Z,100542.56
2023-12-14T13:15:30.816Z,100539.78
2023-12-14T13:17:59.963Z,100536.81
2023-12-14T13:20:27.999Z,100537.00
2023-12-14T13:22:55.633Z,100539.81
2023-12-14T13:25:27.925Z,100541.00
2023-12-14T13:27:55.827Z,100544.34
2023-12-14T13:30:24.243Z,100552.59
2023-12-14T13:32:52.401Z,100555.16
2023-12-14T13:35:20.175Z,100550.53
2023-12-14T13:37:47.912Z,100561.47
2023-12-14T13:40:18.668Z,100554.66
2023-12-14T13:42:54.928Z,100557.75
2023-12-14T13:45:32.018Z,100555.16
2023-12-14T13:48:00.750Z,100557.88
2023-12-14T13:50:29.645Z,100555.97
2023-12-14T13:52:57.939Z,100554.88
2023-12-14T13:55:25.969Z,100550.94
2023-12-14T13:57:54.047Z,100559.75
2023-12-14T14:00:22.970Z,100561.16
2023-12-14T14:02:50.736Z,100560.06
2023-12-14T14:05:18.561Z,100558.03
2023-12-14T14:07:46.656Z,100553.28
2023-12-14T14:10:14.645Z,100563.50
2023-12-14T14:12:42.885Z,100571.81
2023-12-14T14:15:11.355Z,100580.16
2023-12-14T14:17:39.351Z,100581.47
2023-12-14T14:20:08.612Z,100584.03
2023-12-14T14:22:39.742Z,100600.84
2023-12-14T14:25:08.092Z,100604.81
2023-12-14T14:27:36.259Z,100605.03
2023-12-14T14:30:04.949Z,100612.25
2023-12-14T14:32:34.063Z,100614.09
2023-12-14T14:35:02.516Z,100616.19
2023-12-14T14:37:30.363Z,100624.41
2023-12-14T14:39:58.177Z,100626.75
2023-12-14T14:42:26.366Z,100625.06
2023-12-14T14:44:54.259Z,100630.41
2023-12-14T14:47:23.279Z,100629.75
2023-12-14T14:49:51.298Z,100637.19
2023-12-14T14:52:21.191Z,100646.59
2023-12-14T14:54:48.804Z,100642.25
2023-12-14T14:57:16.408Z,100654.84
2023-12-14T14:59:44.031Z,100650.38
2023-12-14T15:02:11.806Z,100657.16
2023-12-14T15:04:39.562Z,100668.94
2023-12-14T15:07:09.306Z,100665.13
2023-12-14T15:09:37.179Z,100671.19
2023-12-14T15:12:05.069Z,100678.69
2023-12-14T15:14:32.948Z,100676.88
2023-12-14T15:17:00.778Z,100680.31
2023-12-14T15:19:29.299Z,100681.34
2023-12-14T15:21:57.670Z,100685.75
2023-12-14T15:24:28.036Z,100693.00
2023-12-14T15:26:55.930Z,100691.28
2023-12-14T15:29:24.203Z,100691.91
2023-12-14T15:31:53.894Z,100709.44
2023-12-14T15:34:21.941Z,100703.94
2023-12-14T15:36:49.618Z,100714.59
2023-12-14T15:39:17.408Z,100722.72
2023-12-14T15:41:45.195Z,100728.41
2023-12-14T15:44:12.849Z,100736.34
2023-12-14T15:46:40.843Z,100730.13
2023-12-14T15:49:08.699Z,100729.91
2023-12-14T15:51:40.580Z,100732.13
2023-12-14T15:54:08.418Z,100738.84
2023-12-14T15:56:36.392Z,100744.44
2023-12-14T15:59:05.303Z,100740.63
2023-12-14T16:01:33.288Z,100743.84
2023-12-14T16:04:00.938Z,100748.16
2023-12-14T16:06:28.669Z,100755.19
2023-12-14T16:08:56.561Z,100755.09
2023-12-14T16:11:24.289Z,100756.09
2023-12-14T16:13:53.618Z,100760.47
2023-12-14T16:16:21.496Z,100765.00
2023-12-14T16:18:49.861Z,100766.09
2023-12-14T16:21:17.853Z,100775.47
2023-12-14T16:23:45.581Z,100779.09
2023-12-14T16:26:14.082Z,100786.97
2023-12-14T16:28:42.231Z,100786.25
2023-12-14T16:31:09.991Z,100791.50
2023-12-14T16:33:40.874Z,100798.25
2023-12-14T16:36:15.948Z,100806.38
2023-12-14T16:38:47.353Z,100807.03
2023-12-14T16:41:15.738Z,100807.66
2023-12-14T16:43:43.942Z,100812.41
2023-12-14T16:46:11.659Z,100826.03
2023-12-14T16:48:40.048Z,100816.63
2023-12-14T16:51:08.147Z,100814.66
2023-12-14T16:53:35.844Z,100824.53
2023-12-14T16:56:06.470Z,100831.69
2023-12-14T16:58:39.885Z,100834.00
2023-12-14T17:01:07.983Z,100849.97
2023-12-14T17:03:35.876Z,100856.66
2023-12-14T17:06:04.017Z,100858.25
2023-12-14T17:08:31.813Z,100871.31
2023-12-14T17:11:00.672Z,100866.56
2023-12-14T17:13:28.445Z,100861.44
2023-12-14T17:15:56.279Z,100866.47
2023-12-14T17:18:24.147Z,100856.59
2023-12-14T17:20:51.965Z,100873.13
2023-12-14T17:23:19.861Z,100870.63
2023-12-14T17:25:48.305Z,100880.00
2023-12-14T17:28:16.275Z,100886.72
2023-12-14T17:30:44.378Z,100891.19
2023-12-14T17:33:13.762Z,100893.19
2023-12-14T17:35:42.065Z,100903.94
2023-12-14T17:38:09.862Z,100904.59
2023-12-14T17:40:37.521Z,100904.38
2023-12-14T17:43:05.430Z,100912.84
2023-12-14T17:45:33.310Z,100916.38
2023-12-14T17:48:26.712Z,100913.06
2023-12-14T17:50:56.523Z,100912.63
2023-12-14T17:53:25.692Z,100915.19
2023-12-14T17:55:53.667Z,100913.66
2023-12-14T17:58:21.374Z,100920.53
2023-12-14T18:00:51.875Z,100922.94
2023-12-14T18:03:19.869Z,100932.53
2023-12-14T18:05:47.700Z,100941.63
2023-12-14T18:08:15.773Z,100950.47
2023-12-14T18:10:43.476Z,100960.41
2023-12-14T18:13:11.151Z,100959.69
2023-12-14T18:15:38.939Z,100974.03
2023-12-14T18:18:06.646Z,100970.06
2023-12-14T18:20:34.567Z,100973.72
2023-12-14T18:23:04.103Z,100984.94
2023-12-14T18:25:31.664Z,100986.88
2023-12-14T18:28:03.136Z,100987.69
2023-12-14T18:30:30.845Z,100988.22
2023-12-14T18:32:58.356Z,101002.25
2023-12-14T18:35:26.019Z,101002.38
2023-12-14T18:37:53.787Z,101009.44
2023-12-14T18:40:26.034Z,101008.47
2023-12-14T18:42:53.901Z,101007.00
2023-12-14T18:45:21.877Z,101005.72
2023-12-14T18:47:49.582Z,101004.44
2023-12-14T18:50:17.825Z,101014.06
2023-12-14T18:52:45.719Z,101021.31
2023-12-14T18:55:13.568Z,101026.53
2023-12-14T18:57:44.223Z,101018.84
2023-12-14T19:00:16.008Z,101035.81
2023-12-14T19:02:43.670Z,101035.03
2023-12-14T19:05:12.037Z,101033.84
2023-12-14T19:07:40.032Z,101023.91
2023-12-14T19:10:09.385Z,101031.75
2023-12-14T19:12:37.800Z,101020.13
2023-12-14T19:15:06.971Z,101029.78
2023-12-14T19:17:35.027Z,101038.94
2023-12-14T19:20:03.024Z,101046.31
2023-12-14T19:22:31.851Z,101053.22
2023-12-14T19:24:59.593Z,101050.53
2023-12-14T19:27:27.375Z,101059.22
2023-12-14T19:29:56.138Z,101064.75
2023-12-14T19:32:23.876Z,101065.28
2023-12-14T19:34:52.877Z,101064.41
2023-12-14T19:37:20.771Z,101072.47
2023-12-14T19:39:48.541Z,101072.47
2023-12-14T19:42:16.240Z,101066.03
2023-12-14T19:44:44.590Z,101079.75
2023-12-14T19:47:12.815Z,101087.91
2023-12-14T19:49:41.342Z,101093.09
2023-12-14T19:52:09.889Z,101090.09
2023-12-14T19:54:41.037Z,101099.25
2023-12-14T19:57:09.709Z,101104.91
2023-12-14T19:59:38.869Z,101110.88
2023-12-14T20:02:07.299Z,101120.66
2023-12-14T20:04:35.125Z,101129.13
2023-12-14T20:07:02.995Z,101127.22
2023-12-14T20:09:30.781Z,101134.19
2023-12-14T20:11:58.766Z,101138.63
2023-12-14T20:14:26.671Z,101151.34
2023-12-14T20:16:54.597Z,101150.34
2023-12-14T20:19:22.257Z,101156.25
2023-12-14T20:21:49.917Z,101168.13
2023-12-14T20:24:17.588Z,101158.56
2023-12-14T20:26:45.287Z,101170.19
2023-12-14T20:29:13.683Z,101184.16
2023-12-14T20:31:41.372Z,101187.13
2023-12-14T20:34:10.020Z,101178.69
2023-12-14T20:36:39.276Z,101184.16
2023-12-14T20:39:08.434Z,101184.72
2023-12-14T20:41:36.270Z,101207.50
2023-12-14T20:44:04.209Z,101212.63
2023-12-14T20:46:33.950Z,101220.28
2023-12-14T20:49:02.070Z,101222.25
2023-12-14T20:51:30.561Z,101221.16
2023-12-14T20:53:58.496Z,101219.84
2023-12-14T20:56:26.376Z,101229.28
2023-12-14T20:58:54.937Z,101230.28
2023-12-14T21:01:22.926Z,101230.28
2023-12-14T21:03:51.582Z,101235.44
2023-12-14T21:06:21.167Z,101240.84
2023-12-14T21:08:50.935Z,101248.09
2023-12-14T21:11:20.928Z,101259.19
2023-12-14T21:13:49.311Z,101261.06
2023-12-14T21:16:17.054Z,101259.13
2023-12-14T21:18:47.251Z,101268.94
2023-12-14T21:21:15.826Z,101266.84
2023-12-14T21:23:43.584Z,101267.63
2023-12-14T21:26:13.585Z,101271.94
2023-12-14T21:28:41.356Z,101271.06
2023-12-14T21:31:09.221Z,101273.97
2023-12-14T21:33:38.283Z,101279.41
2023-12-14T21:36:07.070Z,101281.09
2023-12-14T21:38:37.049Z,101292.69
2023-12-14T21:41:05.524Z,101289.22
2023-12-14T21:43:33.229Z,101290.00
2023-12-14T21:46:01.029Z,101297.03
2023-12-14T21:48:28.883Z,101301.38
2023-12-14T21:50:56.593Z,101305.41
2023-12-14T21:53:25.264Z,101311.09
2023-12-14T21:55:53.146Z,101311.88
2023-12-14T21:58:20.908Z,101313.53
2023-12-14T22:00:48.771Z,101314.59
2023-12-14T22:03:17.012Z,101322.75
2023-12-14T22:05:44.800Z,101339.19
2023-12-14T22:08:12.689Z,101341.91
2023-12-14T22:10:45.987Z,101343.56
2023-12-14T22:13:13.877Z,101351.16
2023-12-14T22:15:41.720Z,101348.41
2023-12-14T22:18:10.300Z,101348.69
2023-12-14T22:20:38.450Z,101348.88
2023-12-14T22:23:06.251Z,101350.56
2023-12-14T22:25:34.000Z,101353.00
2023-12-14T22:28:01.756Z,101353.81
2023-12-14T22:30:29.589Z,101352.16
2023-12-14T22:32:57.185Z,101359.72
2023-12-14T22:35:25.420Z,101361.94
2023-12-14T22:37:53.171Z,101365.16
2023-12-14T22:40:21.146Z,101373.88
2023-12-14T22:42:48.999Z,101375.50
2023-12-14T22:45:16.826Z,101387.41
2023-12-14T22:47:44.663Z,101372.53
2023-12-14T22:50:12.768Z,101381.16
2023-12-14T22:52:40.489Z,101372.25
2023-12-14T22:55:12.819Z,101374.97
2023-12-14T22:57:40.613Z,101388.47
2023-12-14T23:00:18.941Z,101383.06
2023-12-14T23:02:46.697Z,101385.50
2023-12-14T23:05:20.798Z,101400.38
2023-12-14T23:07:48.713Z,101401.47
2023-12-14T23:10:16.920Z,101403.66
2023-12-14T23:12:44.798Z,101408.00
2023-12-14T23:15:12.818Z,101410.72
2023-12-14T23:17:40.805Z,101404.78
2023-12-14T23:20:09.480Z,101408.53
2023-12-14T23:22:37.277Z,101411.50
2023-12-14T23:25:05.484Z,101413.97
2023-12-14T23:27:33.396Z,101416.13
2023-12-14T23:30:01.220Z,101411.25
2023-12-14T23:32:29.572Z,101409.66
2023-12-14T23:34:57.920Z,101416.41
2023-12-14T23:37:25.640Z,101411.81
2023-12-14T23:39:53.376Z,101419.94
2023-12-14T23:42:21.105Z,101421.53
2023-12-14T23:44:49.047Z,101422.88
2023-12-14T23:47:16.983Z,101422.63
2023-12-14T23:49:44.719Z,101427.47
2023-12-14T23:52:12.703Z,101416.16
2023-12-14T23:54:40.445Z,101421.78
2023-12-14T23:57:09.426Z,101425.03
2023-12-14T23:59:37.194Z,101426.66
